createdAt,value
2023-04-30T00:00:29.023Z,10.6
2023-04-30T00:01:29.051Z,10.6
2023-04-30T00:02:29.273Z,10.6
2023-04-30T00:03:29.133Z,10.6
2023-04-30T00:04:29.036Z,10.5
2023-04-30T00:05:29.007Z,10.5
2023-04-30T00:06:29.079Z,10.5
2023-04-30T00:07:29.016Z,10.5
2023-04-30T00:08:29.129Z,10.5
2023-04-30T00:09:29.072Z,10.5
2023-04-30T00:10:28.984Z,10.5
2023-04-30T00:11:29.000Z,10.4
2023-04-30T00:12:28.955Z,10.4
2023-04-30T00:13:28.987Z,10.4
2023-04-30T00:14:29.011Z,10.4
2023-04-30T00:15:28.985Z,10.4
2023-04-30T00:16:29.065Z,10.4
2023-04-30T00:17:39.552Z,10.4
2023-04-30T00:18:28.976Z,10.4
2023-04-30T00:19:29.122Z,10.4
2023-04-30T00:20:28.995Z,10.4
2023-04-30T00:21:29.003Z,10.4
2023-04-30T00:22:28.984Z,10.4
2023-04-30T00:23:28.965Z,10.4
2023-04-30T00:24:28.994Z,10.4
2023-04-30T00:25:28.989Z,10.3
2023-04-30T00:26:28.967Z,10.3
2023-04-30T00:27:51.995Z,10.3
2023-04-30T00:28:28.998Z,10.3
2023-04-30T00:29:28.975Z,10.3
2023-04-30T00:30:29.001Z,10.3
2023-04-30T00:31:29.053Z,10.3
2023-04-30T00:32:28.959Z,10.3
2023-04-30T00:33:29.035Z,10.3
2023-04-30T00:34:37.965Z,10.3
2023-04-30T00:35:28.974Z,10.3
2023-04-30T00:36:30.579Z,10.3
2023-04-30T00:37:28.964Z,10.3
2023-04-30T00:38:28.979Z,10.3
2023-04-30T00:39:28.928Z,10.3
2023-04-30T00:40:28.956Z,10.3
2023-04-30T00:41:28.926Z,10.3
2023-04-30T00:42:29.174Z,10.3
2023-04-30T00:43:28.939Z,10.3
2023-04-30T00:44:29.069Z,10.3
2023-04-30T00:45:28.919Z,10.3
2023-04-30T00:46:29.155Z,10.3
2023-04-30T00:47:29.021Z,10.2
2023-04-30T00:48:28.966Z,10.3
2023-04-30T00:49:29.002Z,10.2
2023-04-30T00:50:28.919Z,10.2
2023-04-30T00:51:28.932Z,10.2
2023-04-30T00:52:28.951Z,10.2
2023-04-30T00:53:28.927Z,10.2
2023-04-30T00:54:28.959Z,10.2
2023-04-30T00:55:28.966Z,10.2
2023-04-30T00:56:28.944Z,10.2
2023-04-30T00:57:28.985Z,10.2
2023-04-30T00:58:28.959Z,10.2
2023-04-30T00:59:28.884Z,10.2
2023-04-30T01:00:29.030Z,10.2
2023-04-30T01:03:29.082Z,10.2
2023-04-30T01:04:28.925Z,10.2
2023-04-30T01:05:29.049Z,10.2
2023-04-30T01:06:28.971Z,10.2
2023-04-30T01:07:28.878Z,10.2
2023-04-30T01:08:28.890Z,10.2
2023-04-30T01:09:28.994Z,10.2
2023-04-30T01:10:28.980Z,10.2
2023-04-30T01:11:28.900Z,10.2
2023-04-30T01:12:28.907Z,10.2
2023-04-30T01:13:28.948Z,10.2
2023-04-30T01:14:28.912Z,10.2
2023-04-30T01:15:28.893Z,10.2
2023-04-30T01:16:29.130Z,10.2
2023-04-30T01:17:28.896Z,10.2
2023-04-30T01:18:29.008Z,10.2
2023-04-30T01:19:28.997Z,10.2
2023-04-30T01:20:28.899Z,10.2
2023-04-30T01:21:28.854Z,10.2
2023-04-30T01:22:28.950Z,10.2
2023-04-30T01:23:28.870Z,10.2
2023-04-30T01:24:28.945Z,10.2
2023-04-30T01:25:28.866Z,10.2
2023-04-30T01:26:28.859Z,10.2
2023-04-30T01:27:29.068Z,10.2
2023-04-30T01:28:28.956Z,10.2
2023-04-30T01:29:28.902Z,10.1
2023-04-30T01:30:28.912Z,10.1
2023-04-30T01:31:28.964Z,10.1
2023-04-30T01:32:28.905Z,10.1
2023-04-30T01:33:28.895Z,10.1
2023-04-30T01:34:28.833Z,10.1
2023-04-30T01:35:28.850Z,10.1
2023-04-30T01:36:28.856Z,10.1
2023-04-30T01:37:28.979Z,10.1
2023-04-30T01:38:28.821Z,10.1
2023-04-30T01:39:28.833Z,10.1
2023-04-30T01:40:28.801Z,10.1
2023-04-30T01:41:28.869Z,10.1
2023-04-30T01:42:28.949Z,10.1
2023-04-30T01:43:28.830Z,10.1
2023-04-30T01:44:28.845Z,10.1
2023-04-30T01:45:28.844Z,10.1
2023-04-30T01:46:28.883Z,10.1
2023-04-30T01:47:29.056Z,10.1
2023-04-30T01:48:28.876Z,10.1
2023-04-30T01:49:28.995Z,10.1
2023-04-30T01:50:28.800Z,10.1
2023-04-30T01:51:28.866Z,10.1
2023-04-30T01:52:28.904Z,10.0
2023-04-30T01:53:28.869Z,10.0
2023-04-30T01:54:28.847Z,10.0
2023-04-30T01:55:28.844Z,10.0
2023-04-30T01:56:28.891Z,10.0
2023-04-30T01:57:28.970Z,10.0
2023-04-30T01:58:28.844Z,10.0
2023-04-30T01:59:28.786Z,10.0
2023-04-30T02:00:28.978Z,10.0
2023-04-30T02:01:28.937Z,10.0
2023-04-30T02:02:28.903Z,10.0
2023-04-30T02:03:28.922Z,10.0
2023-04-30T02:04:28.786Z,10.0
2023-04-30T02:05:28.827Z,10.0
2023-04-30T02:06:47.847Z,10.0
2023-04-30T02:07:28.782Z,10.0
2023-04-30T02:08:28.764Z,10.0
2023-04-30T02:09:28.781Z,10.0
2023-04-30T02:10:28.870Z,10.0
2023-04-30T02:11:28.947Z,10.0
2023-04-30T02:12:28.880Z,10.0
2023-04-30T02:13:28.805Z,10.0
2023-04-30T02:14:28.773Z,10.0
2023-04-30T02:15:28.826Z,10.0
2023-04-30T02:17:28.896Z,9.9
2023-04-30T02:18:28.772Z,10.0
2023-04-30T02:19:28.779Z,10.0
2023-04-30T02:20:28.827Z,10.0
2023-04-30T02:21:28.853Z,10.0
2023-04-30T02:22:28.983Z,10.0
2023-04-30T02:23:28.776Z,9.9
2023-04-30T02:24:28.791Z,9.9
2023-04-30T02:25:28.776Z,9.9
2023-04-30T02:26:28.794Z,9.9
2023-04-30T02:27:28.792Z,9.9
2023-04-30T02:28:28.745Z,9.8
2023-04-30T02:29:28.789Z,9.8
2023-04-30T02:30:28.769Z,9.8
2023-04-30T02:31:28.909Z,9.8
2023-04-30T02:32:28.756Z,9.7
2023-04-30T02:33:28.891Z,9.7
2023-04-30T02:34:28.766Z,9.6
2023-04-30T02:35:28.731Z,9.6
2023-04-30T02:36:28.887Z,9.6
2023-04-30T02:37:28.747Z,9.5
2023-04-30T02:38:28.739Z,9.5
2023-04-30T02:39:28.752Z,9.4
2023-04-30T02:40:28.738Z,9.4
2023-04-30T02:41:28.730Z,9.4
2023-04-30T02:42:28.799Z,9.4
2023-04-30T02:43:28.861Z,9.3
2023-04-30T02:44:28.860Z,9.3
2023-04-30T02:45:28.782Z,9.2
2023-04-30T02:46:28.753Z,9.2
2023-04-30T02:47:47.358Z,9.2
2023-04-30T02:48:28.739Z,9.1
2023-04-30T02:49:28.738Z,9.1
2023-04-30T02:50:28.745Z,9.1
2023-04-30T02:51:28.878Z,9.0
2023-04-30T02:52:28.793Z,9.0
2023-04-30T02:53:28.753Z,9.0
2023-04-30T02:54:28.732Z,8.9
2023-04-30T02:55:28.833Z,8.9
2023-04-30T02:56:28.989Z,8.9
2023-04-30T02:57:28.747Z,8.8
2023-04-30T02:58:28.653Z,8.8
2023-04-30T02:59:28.674Z,8.8
2023-04-30T03:00:28.804Z,8.7
2023-04-30T03:01:28.770Z,8.7
2023-04-30T03:02:28.740Z,8.7
2023-04-30T03:03:28.771Z,8.6
2023-04-30T03:04:28.710Z,8.6
2023-04-30T03:05:28.688Z,8.6
2023-04-30T03:06:28.974Z,8.5
2023-04-30T03:07:28.677Z,8.5
2023-04-30T03:08:28.666Z,8.5
2023-04-30T03:09:28.720Z,8.4
2023-04-30T03:10:28.709Z,8.4
2023-04-30T03:11:28.699Z,8.4
2023-04-30T03:12:28.750Z,8.4
2023-04-30T03:13:28.747Z,8.4
2023-04-30T03:14:28.683Z,8.3
2023-04-30T03:15:28.765Z,8.3
2023-04-30T03:16:28.791Z,8.3
2023-04-30T03:17:28.700Z,8.3
2023-04-30T03:18:28.990Z,8.3
2023-04-30T03:19:28.669Z,8.3
2023-04-30T03:20:28.704Z,8.2
2023-04-30T03:21:28.726Z,8.2
2023-04-30T03:22:28.711Z,8.2
2023-04-30T03:23:28.686Z,8.2
2023-04-30T03:24:28.683Z,8.1
2023-04-30T03:25:28.685Z,8.1
2023-04-30T03:26:28.734Z,8.1
2023-04-30T03:27:28.923Z,8.1
2023-04-30T03:28:28.955Z,8.1
2023-04-30T03:29:28.998Z,8.1
2023-04-30T03:30:28.735Z,8.1
2023-04-30T03:31:28.767Z,8.1
2023-04-30T03:32:28.721Z,8.1
2023-04-30T03:33:28.717Z,8.1
2023-04-30T03:34:28.689Z,8.1
2023-04-30T03:35:28.639Z,8.0
2023-04-30T03:36:28.682Z,8.0
2023-04-30T03:37:28.615Z,8.0
2023-04-30T03:38:28.717Z,8.0
2023-04-30T03:39:28.602Z,8.0
2023-04-30T03:40:28.814Z,8.0
2023-04-30T03:41:28.675Z,7.9
2023-04-30T03:42:28.726Z,7.9
2023-04-30T03:43:28.701Z,7.9
2023-04-30T03:44:28.680Z,7.9
2023-04-30T03:45:28.638Z,7.9
2023-04-30T03:46:28.736Z,7.8
2023-04-30T03:47:28.723Z,7.8
2023-04-30T03:48:28.671Z,7.8
2023-04-30T03:49:28.739Z,7.8
2023-04-30T03:50:28.629Z,7.7
2023-04-30T03:51:28.760Z,7.7
2023-04-30T03:52:28.639Z,7.7
2023-04-30T03:53:28.681Z,7.7
2023-04-30T03:54:28.665Z,7.6
2023-04-30T03:55:28.684Z,7.6
2023-04-30T03:56:28.617Z,7.6
2023-04-30T03:57:28.621Z,7.6
2023-04-30T03:58:28.629Z,7.6
2023-04-30T03:59:28.619Z,7.6
2023-04-30T04:00:28.619Z,7.5
2023-04-30T04:01:28.641Z,7.5
2023-04-30T04:02:29.157Z,7.5
2023-04-30T04:03:28.681Z,7.5
2023-04-30T04:04:28.751Z,7.5
2023-04-30T04:05:28.605Z,7.5
2023-04-30T04:06:28.716Z,7.5
2023-04-30T04:07:28.661Z,7.5
2023-04-30T04:08:28.704Z,7.4
2023-04-30T04:09:28.791Z,7.4
2023-04-30T04:10:28.588Z,7.4
2023-04-30T04:11:28.654Z,7.4
2023-04-30T04:12:28.554Z,7.4
2023-04-30T04:13:28.571Z,7.4
2023-04-30T04:14:28.647Z,7.4
2023-04-30T04:15:28.606Z,7.4
2023-04-30T04:16:28.730Z,7.4
2023-04-30T04:17:28.606Z,7.4
2023-04-30T04:18:28.609Z,7.4
2023-04-30T04:19:28.622Z,7.4
2023-04-30T04:20:28.564Z,7.4
2023-04-30T04:21:28.562Z,7.4
2023-04-30T04:22:28.579Z,7.4
2023-04-30T04:23:28.556Z,7.4
2023-04-30T04:24:28.702Z,7.4
2023-04-30T04:25:28.582Z,7.4
2023-04-30T04:26:28.637Z,7.4
2023-04-30T04:27:28.604Z,7.4
2023-04-30T04:28:28.546Z,7.4
2023-04-30T04:29:28.542Z,7.4
2023-04-30T04:30:28.564Z,7.4
2023-04-30T04:31:28.564Z,7.4
2023-04-30T04:32:28.616Z,7.4
2023-04-30T04:35:28.653Z,7.4
2023-04-30T04:36:28.591Z,7.4
2023-04-30T04:37:28.517Z,7.4
2023-04-30T04:39:28.616Z,7.4
2023-04-30T04:40:29.783Z,7.4
2023-04-30T04:41:28.546Z,7.4
2023-04-30T04:42:28.529Z,7.4
2023-04-30T04:43:28.520Z,7.4
2023-04-30T04:44:28.541Z,7.4
2023-04-30T04:45:28.571Z,7.4
2023-04-30T04:46:28.640Z,7.4
2023-04-30T04:47:28.564Z,7.4
2023-04-30T04:48:28.504Z,7.4
2023-04-30T04:49:28.548Z,7.4
2023-04-30T04:50:28.580Z,7.4
2023-04-30T04:51:28.518Z,7.4
2023-04-30T04:52:28.546Z,7.4
2023-04-30T04:53:28.566Z,7.4
2023-04-30T04:54:28.555Z,7.4
2023-04-30T04:55:28.509Z,7.5
2023-04-30T04:56:28.568Z,7.5
2023-04-30T04:57:32.778Z,7.5
2023-04-30T04:58:28.521Z,7.5
2023-04-30T04:59:28.526Z,7.5
2023-04-30T05:00:28.561Z,7.5
2023-04-30T05:01:28.520Z,7.5
2023-04-30T05:02:28.566Z,7.5
2023-04-30T05:03:28.590Z,7.5
2023-04-30T05:04:28.519Z,7.5
2023-04-30T05:05:28.506Z,7.6
2023-04-30T05:06:28.549Z,7.6
2023-04-30T05:07:28.524Z,7.6
2023-04-30T05:08:28.500Z,7.6
2023-04-30T05:09:28.510Z,7.6
2023-04-30T05:10:28.545Z,7.6
2023-04-30T05:11:28.496Z,7.6
2023-04-30T05:12:28.470Z,7.7
2023-04-30T05:13:28.506Z,7.7
2023-04-30T05:14:28.477Z,7.7
2023-04-30T05:15:28.474Z,7.7
2023-04-30T05:16:28.509Z,7.7
2023-04-30T05:17:28.495Z,7.7
2023-04-30T05:18:28.652Z,7.7
2023-04-30T05:19:28.488Z,7.8
2023-04-30T05:20:28.450Z,7.8
2023-04-30T05:21:28.521Z,7.8
2023-04-30T05:22:28.478Z,7.8
2023-04-30T05:23:28.492Z,7.8
2023-04-30T05:24:28.443Z,7.8
2023-04-30T05:25:28.449Z,7.8
2023-04-30T05:26:28.462Z,7.8
2023-04-30T05:27:28.538Z,7.8
2023-04-30T05:28:28.475Z,7.8
2023-04-30T05:29:28.639Z,7.8
2023-04-30T05:30:28.492Z,7.8
2023-04-30T05:31:28.528Z,7.9
2023-04-30T05:32:28.482Z,7.9
2023-04-30T05:33:28.451Z,7.9
2023-04-30T05:34:28.441Z,7.9
2023-04-30T05:35:28.454Z,7.9
2023-04-30T05:36:28.470Z,7.9
2023-04-30T05:37:28.464Z,7.9
2023-04-30T05:38:28.459Z,7.9
2023-04-30T05:39:28.422Z,7.9
2023-04-30T05:40:28.589Z,7.9
2023-04-30T05:41:28.461Z,7.9
2023-04-30T05:42:28.491Z,7.9
2023-04-30T05:43:28.432Z,8.0
2023-04-30T05:44:28.413Z,8.0
2023-04-30T05:45:28.413Z,8.0
2023-04-30T05:46:28.565Z,8.0
2023-04-30T05:47:28.447Z,8.1
2023-04-30T05:49:28.461Z,8.1
2023-04-30T05:50:28.403Z,8.1
2023-04-30T05:51:28.579Z,8.1
2023-04-30T05:52:28.415Z,8.1
2023-04-30T05:53:28.430Z,8.2
2023-04-30T05:54:28.434Z,8.2
2023-04-30T05:55:28.439Z,8.2
2023-04-30T05:56:28.430Z,8.2
2023-04-30T05:57:28.432Z,8.2
2023-04-30T05:58:28.442Z,8.3
2023-04-30T05:59:28.459Z,8.3
2023-04-30T06:00:28.457Z,8.3
2023-04-30T06:01:28.430Z,8.4
2023-04-30T06:02:28.599Z,8.4
2023-04-30T06:03:28.495Z,8.4
2023-04-30T06:04:28.415Z,8.4
2023-04-30T06:05:28.463Z,8.4
2023-04-30T06:06:28.461Z,8.4
2023-04-30T06:07:28.372Z,8.4
2023-04-30T06:08:28.391Z,8.4
2023-04-30T06:09:28.361Z,8.4
2023-04-30T06:10:28.473Z,8.4
2023-04-30T06:11:28.392Z,8.5
2023-04-30T06:12:28.414Z,8.5
2023-04-30T06:13:28.433Z,8.5
2023-04-30T06:14:28.348Z,8.5
2023-04-30T06:15:28.392Z,8.5
2023-04-30T06:16:28.384Z,8.6
2023-04-30T06:17:28.436Z,8.6
2023-04-30T06:18:28.429Z,8.6
2023-04-30T06:19:28.453Z,8.7
2023-04-30T06:20:28.409Z,8.7
2023-04-30T06:21:28.443Z,8.7
2023-04-30T06:22:28.439Z,8.7
2023-04-30T06:23:28.431Z,8.8
2023-04-30T06:25:28.338Z,8.8
2023-04-30T06:26:28.366Z,8.8
2023-04-30T06:27:57.548Z,8.8
2023-04-30T06:28:28.367Z,8.8
2023-04-30T06:29:28.384Z,8.8
2023-04-30T06:30:28.335Z,8.9
2023-04-30T06:31:28.347Z,8.9
2023-04-30T06:32:28.367Z,9.0
2023-04-30T06:33:28.371Z,9.0
2023-04-30T06:34:28.361Z,9.1
2023-04-30T06:35:28.500Z,9.1
2023-04-30T06:36:28.360Z,9.2
2023-04-30T06:37:28.334Z,9.2
2023-04-30T06:38:28.318Z,9.3
2023-04-30T06:39:28.378Z,9.3
2023-04-30T06:40:28.374Z,9.4
2023-04-30T06:41:28.324Z,9.4
2023-04-30T06:42:28.365Z,9.4
2023-04-30T06:43:28.362Z,9.4
2023-04-30T06:44:28.324Z,9.5
2023-04-30T06:45:28.314Z,9.5
2023-04-30T06:46:28.453Z,9.6
2023-04-30T06:47:28.372Z,9.6
2023-04-30T06:48:28.364Z,9.6
2023-04-30T06:49:28.316Z,9.6
2023-04-30T06:50:28.315Z,9.6
2023-04-30T06:51:28.323Z,9.6
2023-04-30T06:52:28.353Z,9.6
2023-04-30T06:53:28.297Z,9.7
2023-04-30T06:54:28.291Z,9.7
2023-04-30T06:55:31.542Z,9.7
2023-04-30T06:56:28.329Z,9.7
2023-04-30T06:57:28.485Z,9.7
2023-04-30T06:58:28.302Z,9.7
2023-04-30T06:59:28.309Z,9.7
2023-04-30T07:00:28.301Z,9.7
2023-04-30T07:01:28.333Z,9.7
2023-04-30T07:02:28.456Z,9.8
2023-04-30T07:03:28.429Z,9.8
2023-04-30T07:04:28.268Z,9.8
2023-04-30T07:05:28.354Z,9.9
2023-04-30T07:06:28.357Z,9.9
2023-04-30T07:07:28.304Z,9.9
2023-04-30T07:08:28.426Z,10.0
2023-04-30T07:09:28.272Z,10.0
2023-04-30T07:10:28.314Z,10.1
2023-04-30T07:11:28.292Z,10.1
2023-04-30T07:12:28.320Z,10.1
2023-04-30T07:13:28.370Z,10.1
2023-04-30T07:14:28.287Z,10.1
2023-04-30T07:15:28.258Z,10.1
2023-04-30T07:16:28.406Z,10.2
2023-04-30T07:17:28.349Z,10.2
2023-04-30T07:18:28.303Z,10.3
2023-04-30T07:19:28.430Z,10.3
2023-04-30T07:20:28.297Z,10.3
2023-04-30T07:21:28.237Z,10.3
2023-04-30T07:22:28.301Z,10.3
2023-04-30T07:23:30.464Z,10.4
2023-04-30T07:24:28.260Z,10.4
2023-04-30T07:25:28.261Z,10.4
2023-04-30T07:26:28.281Z,10.5
2023-04-30T07:27:28.283Z,10.6
2023-04-30T07:28:28.264Z,10.6
2023-04-30T07:29:28.276Z,10.7
2023-04-30T07:30:38.804Z,10.8
2023-04-30T07:31:28.281Z,10.9
2023-04-30T07:32:28.328Z,10.9
2023-04-30T07:33:28.253Z,11.0
2023-04-30T07:34:28.249Z,11.0
2023-04-30T07:35:28.252Z,11.1
2023-04-30T07:36:28.244Z,11.1
2023-04-30T07:37:28.273Z,11.1
2023-04-30T07:38:28.242Z,11.2
2023-04-30T07:39:28.285Z,11.2
2023-04-30T07:40:35.961Z,11.1
2023-04-30T07:41:28.273Z,11.1
2023-04-30T07:42:28.259Z,11.1
2023-04-30T07:43:30.614Z,11.1
2023-04-30T07:45:28.299Z,11.0
2023-04-30T07:46:28.334Z,11.0
2023-04-30T07:47:28.230Z,11.0
2023-04-30T07:48:28.234Z,11.0
2023-04-30T07:49:28.235Z,11.1
2023-04-30T07:50:28.295Z,11.1
2023-04-30T07:51:28.402Z,11.1
2023-04-30T07:52:29.336Z,11.1
2023-04-30T07:53:28.197Z,11.1
2023-04-30T07:54:28.228Z,11.1
2023-04-30T07:55:28.210Z,11.2
2023-04-30T07:56:28.231Z,11.2
2023-04-30T07:57:28.218Z,11.3
2023-04-30T07:58:34.740Z,11.3
2023-04-30T07:59:28.334Z,11.4
2023-04-30T08:00:29.696Z,11.4
2023-04-30T08:01:28.318Z,11.5
2023-04-30T08:02:28.302Z,11.5
2023-04-30T08:03:28.326Z,11.6
2023-04-30T08:04:28.280Z,11.6
2023-04-30T08:05:28.192Z,11.7
2023-04-30T08:06:28.245Z,11.8
2023-04-30T08:07:28.247Z,11.8
2023-04-30T08:08:28.204Z,11.9
2023-04-30T08:09:28.235Z,11.9
2023-04-30T08:10:28.190Z,12.0
2023-04-30T08:11:28.181Z,12.0
2023-04-30T08:12:28.247Z,11.9
2023-04-30T08:13:28.243Z,11.9
2023-04-30T08:14:28.345Z,11.9
2023-04-30T08:15:28.854Z,11.9
2023-04-30T08:16:28.214Z,11.9
2023-04-30T08:17:28.249Z,11.9
2023-04-30T08:18:28.236Z,11.9
2023-04-30T08:19:28.226Z,11.9
2023-04-30T08:20:28.216Z,11.9
2023-04-30T08:21:28.160Z,11.9
2023-04-30T08:22:28.256Z,11.9
2023-04-30T08:23:28.188Z,12.0
2023-04-30T08:24:28.177Z,12.0
2023-04-30T08:25:28.318Z,12.1
2023-04-30T08:26:28.166Z,12.1
2023-04-30T08:27:28.229Z,12.1
2023-04-30T08:28:33.014Z,12.2
2023-04-30T08:29:28.165Z,12.2
2023-04-30T08:30:28.130Z,12.2
2023-04-30T08:31:28.263Z,12.3
2023-04-30T08:32:28.260Z,12.3
2023-04-30T08:33:28.309Z,12.3
2023-04-30T08:34:28.132Z,12.3
2023-04-30T08:35:28.149Z,12.4
2023-04-30T08:36:28.257Z,12.4
2023-04-30T08:37:28.219Z,12.4
2023-04-30T08:38:46.426Z,12.4
2023-04-30T08:39:28.203Z,12.5
2023-04-30T08:40:50.830Z,12.5
2023-04-30T08:41:28.132Z,12.6
2023-04-30T08:42:28.199Z,12.6
2023-04-30T08:43:28.150Z,12.6
2023-04-30T08:44:28.158Z,12.7
2023-04-30T08:45:28.153Z,12.7
2023-04-30T08:46:28.186Z,12.8
2023-04-30T08:47:28.144Z,12.8
2023-04-30T08:48:28.128Z,12.8
2023-04-30T08:49:28.159Z,12.9
2023-04-30T08:50:28.165Z,12.9
2023-04-30T08:51:28.187Z,12.9
2023-04-30T08:52:28.133Z,13.0
2023-04-30T08:53:28.205Z,12.9
2023-04-30T08:54:28.107Z,12.9
2023-04-30T08:55:28.127Z,12.9
2023-04-30T08:56:28.117Z,12.9
2023-04-30T08:57:28.136Z,12.9
2023-04-30T08:58:28.340Z,12.9
2023-04-30T08:59:28.111Z,12.9
2023-04-30T09:00:28.111Z,12.9
2023-04-30T09:01:28.177Z,12.9
2023-04-30T09:02:28.188Z,12.9
2023-04-30T09:03:28.262Z,13.0
2023-04-30T09:04:28.135Z,13.0
2023-04-30T09:05:28.225Z,13.0
2023-04-30T09:06:28.193Z,13.1
2023-04-30T09:07:28.141Z,13.2
2023-04-30T09:08:28.122Z,13.2
2023-04-30T09:09:28.284Z,13.3
2023-04-30T09:10:28.118Z,13.4
2023-04-30T09:11:28.169Z,13.4
2023-04-30T09:12:28.068Z,13.4
2023-04-30T09:13:28.129Z,13.5
2023-04-30T09:14:28.137Z,13.5
2023-04-30T09:15:28.114Z,13.5
2023-04-30T09:16:28.417Z,13.5
2023-04-30T09:17:28.224Z,13.6
2023-04-30T09:19:28.082Z,13.6
2023-04-30T09:20:28.212Z,13.6
2023-04-30T09:21:28.086Z,13.6
2023-04-30T09:22:28.099Z,13.7
2023-04-30T09:23:28.108Z,13.7
2023-04-30T09:24:28.081Z,13.7
2023-04-30T09:25:28.098Z,13.8
2023-04-30T09:26:28.070Z,13.8
2023-04-30T09:27:28.110Z,13.8
2023-04-30T09:28:28.091Z,13.9
2023-04-30T09:29:28.119Z,14.0
2023-04-30T09:30:28.055Z,14.0
2023-04-30T09:31:28.276Z,14.0
2023-04-30T09:32:28.169Z,14.0
2023-04-30T09:33:28.094Z,14.0
2023-04-30T09:34:28.069Z,14.0
2023-04-30T09:35:28.109Z,14.0
2023-04-30T09:36:28.171Z,14.1
2023-04-30T09:37:28.094Z,14.1
2023-04-30T09:38:28.178Z,14.1
2023-04-30T09:39:28.081Z,14.1
2023-04-30T09:40:28.031Z,14.1
2023-04-30T09:41:28.069Z,14.1
2023-04-30T09:42:28.254Z,14.1
2023-04-30T09:43:28.077Z,14.2
2023-04-30T09:44:28.099Z,14.3
2023-04-30T09:45:28.050Z,14.4
2023-04-30T09:46:28.107Z,14.4
2023-04-30T09:47:28.147Z,14.5
2023-04-30T09:48:28.134Z,14.5
2023-04-30T09:49:28.038Z,14.5
2023-04-30T09:50:55.077Z,14.6
2023-04-30T09:51:28.062Z,14.6
2023-04-30T09:52:28.047Z,14.7
2023-04-30T09:53:28.197Z,14.8
2023-04-30T09:54:28.040Z,14.8
2023-04-30T09:55:28.076Z,14.8
2023-04-30T09:56:28.069Z,14.8
2023-04-30T09:57:27.977Z,14.7
2023-04-30T09:58:28.010Z,14.7
2023-04-30T09:59:28.032Z,14.6
2023-04-30T10:00:28.145Z,14.6
2023-04-30T10:01:28.110Z,14.6
2023-04-30T10:02:28.114Z,14.6
2023-04-30T10:03:28.104Z,14.6
2023-04-30T10:04:28.228Z,14.7
2023-04-30T10:05:28.206Z,14.8
2023-04-30T10:06:28.067Z,14.9
2023-04-30T10:07:28.155Z,14.9
2023-04-30T10:08:28.039Z,14.9
2023-04-30T10:09:28.025Z,15.0
2023-04-30T10:10:28.176Z,15.0
2023-04-30T10:11:28.135Z,15.1
2023-04-30T10:12:28.019Z,15.2
2023-04-30T10:13:28.170Z,15.3
2023-04-30T10:14:28.048Z,15.3
2023-04-30T10:15:28.009Z,15.4
2023-04-30T10:16:28.162Z,15.4
2023-04-30T10:17:28.113Z,15.4
2023-04-30T10:19:27.999Z,15.4
2023-04-30T10:20:28.089Z,15.4
2023-04-30T10:21:27.982Z,15.4
2023-04-30T10:22:28.032Z,15.4
2023-04-30T10:23:28.017Z,15.4
2023-04-30T10:24:28.040Z,15.4
2023-04-30T10:25:27.987Z,15.4
2023-04-30T10:26:28.000Z,15.4
2023-04-30T10:27:27.991Z,15.4
2023-04-30T10:28:27.987Z,15.4
2023-04-30T10:29:28.043Z,15.5
2023-04-30T10:30:28.020Z,15.4
2023-04-30T10:31:27.980Z,15.4
2023-04-30T10:35:28.361Z,15.4
2023-04-30T10:36:27.993Z,15.2
2023-04-30T10:37:28.130Z,15.2
2023-04-30T10:38:28.002Z,15.2
2023-04-30T10:39:27.972Z,15.2
2023-04-30T10:40:28.003Z,15.2
2023-04-30T10:41:28.072Z,15.2
2023-04-30T10:42:28.074Z,15.2
2023-04-30T10:43:28.034Z,15.3
2023-04-30T10:44:28.099Z,15.4
2023-04-30T10:45:27.971Z,15.4
2023-04-30T10:46:28.079Z,15.5
2023-04-30T10:47:28.170Z,15.6
2023-04-30T10:48:28.084Z,15.6
2023-04-30T10:49:27.989Z,15.7
2023-04-30T10:50:27.976Z,15.7
2023-04-30T10:51:28.077Z,15.7
2023-04-30T10:52:28.102Z,15.7
2023-04-30T10:53:27.962Z,15.7
2023-04-30T10:54:27.989Z,15.7
2023-04-30T10:55:27.979Z,15.8
2023-04-30T10:56:27.991Z,15.8
2023-04-30T10:59:28.326Z,15.9
2023-04-30T11:00:27.946Z,15.8
2023-04-30T11:01:27.976Z,15.8
2023-04-30T11:02:27.976Z,15.8
2023-04-30T11:03:27.967Z,15.8
2023-04-30T11:04:28.034Z,15.8
2023-04-30T11:05:28.015Z,15.8
2023-04-30T11:06:28.019Z,15.8
2023-04-30T11:07:27.946Z,15.8
2023-04-30T11:08:27.929Z,15.8
2023-04-30T11:09:27.985Z,15.8
2023-04-30T11:10:28.129Z,15.8
2023-04-30T11:11:28.082Z,15.8
2023-04-30T11:12:27.979Z,15.8
2023-04-30T11:13:27.901Z,15.8
2023-04-30T11:14:27.987Z,15.8
2023-04-30T11:15:27.968Z,15.8
2023-04-30T11:16:27.956Z,15.8
2023-04-30T11:17:27.963Z,15.9
2023-04-30T11:18:27.924Z,15.9
2023-04-30T11:19:27.962Z,15.9
2023-04-30T11:20:27.998Z,16.0
2023-04-30T11:21:27.921Z,16.0
2023-04-30T11:22:27.970Z,16.1
2023-04-30T11:23:38.479Z,16.2
2023-04-30T11:24:28.628Z,16.2
2023-04-30T11:25:28.057Z,16.2
2023-04-30T11:26:27.972Z,16.1
2023-04-30T11:27:27.956Z,16.1
2023-04-30T11:28:27.916Z,16.1
2023-04-30T11:29:27.964Z,16.0
2023-04-30T11:30:27.920Z,15.9
2023-04-30T11:31:28.030Z,15.9
2023-04-30T11:32:40.162Z,15.8
2023-04-30T11:33:27.919Z,15.8
2023-04-30T11:34:27.978Z,15.8
2023-04-30T11:35:27.912Z,15.8
2023-04-30T11:36:27.927Z,15.8
2023-04-30T11:37:27.937Z,15.8
2023-04-30T11:38:27.928Z,15.8
2023-04-30T11:39:28.120Z,15.8
2023-04-30T11:40:27.901Z,15.9
2023-04-30T11:41:27.914Z,15.9
2023-04-30T11:42:27.931Z,15.9
2023-04-30T11:43:27.946Z,15.9
2023-04-30T11:44:27.972Z,15.9
2023-04-30T11:45:50.772Z,16.0
2023-04-30T11:46:45.687Z,16.0
2023-04-30T11:47:27.984Z,16.1
2023-04-30T11:48:27.904Z,16.0
2023-04-30T11:49:27.976Z,16.0
2023-04-30T11:50:27.934Z,16.1
2023-04-30T11:51:27.856Z,16.1
2023-04-30T11:52:27.893Z,16.2
2023-04-30T11:53:28.045Z,16.2
2023-04-30T11:54:27.854Z,16.2
2023-04-30T11:55:28.023Z,16.1
2023-04-30T11:56:27.930Z,16.1
2023-04-30T11:57:27.928Z,16.1
2023-04-30T11:58:27.863Z,16.1
2023-04-30T11:59:30.630Z,16.1
2023-04-30T12:00:27.942Z,16.2
2023-04-30T12:01:27.853Z,16.2
2023-04-30T12:02:28.031Z,16.2
2023-04-30T12:03:27.992Z,16.1
2023-04-30T12:04:28.071Z,16.1
2023-04-30T12:05:28.042Z,16.2
2023-04-30T12:06:28.441Z,16.2
2023-04-30T12:07:27.935Z,16.2
2023-04-30T12:08:27.862Z,16.2
2023-04-30T12:09:27.898Z,16.2
2023-04-30T12:10:27.916Z,16.2
2023-04-30T12:11:27.952Z,16.2
2023-04-30T12:12:27.914Z,16.3
2023-04-30T12:13:27.841Z,16.2
2023-04-30T12:14:27.944Z,16.2
2023-04-30T12:15:28.109Z,16.2
2023-04-30T12:16:28.086Z,16.2
2023-04-30T12:17:27.871Z,16.2
2023-04-30T12:18:27.848Z,16.2
2023-04-30T12:19:27.986Z,16.2
2023-04-30T12:20:27.999Z,16.2
2023-04-30T12:21:27.935Z,16.2
2023-04-30T12:22:27.818Z,16.3
2023-04-30T12:23:27.841Z,16.3
2023-04-30T12:24:28.240Z,16.4
2023-04-30T12:25:27.874Z,16.4
2023-04-30T12:26:27.959Z,16.4
2023-04-30T12:27:27.878Z,16.5
2023-04-30T12:28:27.849Z,16.5
2023-04-30T12:29:27.830Z,16.5
2023-04-30T12:30:27.844Z,16.5
2023-04-30T12:31:27.927Z,16.5
2023-04-30T12:32:28.021Z,16.6
2023-04-30T12:33:28.296Z,16.6
2023-04-30T12:34:28.049Z,16.5
2023-04-30T12:35:28.274Z,16.5
2023-04-30T12:36:27.884Z,16.5
2023-04-30T12:37:28.130Z,16.5
2023-04-30T12:38:27.863Z,16.5
2023-04-30T12:39:27.813Z,16.5
2023-04-30T12:40:27.882Z,16.5
2023-04-30T12:42:27.826Z,16.5
2023-04-30T12:43:27.845Z,16.5
2023-04-30T12:44:27.836Z,16.6
2023-04-30T12:45:27.836Z,16.6
2023-04-30T12:46:27.940Z,16.6
2023-04-30T12:47:52.048Z,16.6
2023-04-30T12:48:27.949Z,16.6
2023-04-30T12:49:27.819Z,16.5
2023-04-30T12:50:27.820Z,16.5
2023-04-30T12:51:28.563Z,16.5
2023-04-30T12:52:27.843Z,16.5
2023-04-30T12:53:27.867Z,16.5
2023-04-30T12:54:27.803Z,16.5
2023-04-30T12:55:27.893Z,16.5
2023-04-30T12:56:27.853Z,16.5
2023-04-30T12:57:27.813Z,16.5
2023-04-30T12:58:27.790Z,16.6
2023-04-30T12:59:32.404Z,16.6
2023-04-30T13:00:27.792Z,16.6
2023-04-30T13:02:27.889Z,16.6
2023-04-30T13:03:27.918Z,16.6
2023-04-30T13:04:27.865Z,16.6
2023-04-30T13:05:27.824Z,16.6
2023-04-30T13:06:27.833Z,16.7
2023-04-30T13:07:27.839Z,16.6
2023-04-30T13:08:27.760Z,16.6
2023-04-30T13:09:27.895Z,16.6
2023-04-30T13:10:27.902Z,16.6
2023-04-30T13:11:28.081Z,16.6
2023-04-30T13:12:27.796Z,16.6
2023-04-30T13:13:27.780Z,16.6
2023-04-30T13:14:27.867Z,16.6
2023-04-30T13:15:27.797Z,16.6
2023-04-30T13:16:27.869Z,16.6
2023-04-30T13:17:27.809Z,16.6
2023-04-30T13:18:27.849Z,16.6
2023-04-30T13:19:27.782Z,16.6
2023-04-30T13:20:27.844Z,16.5
2023-04-30T13:21:27.833Z,16.5
2023-04-30T13:23:27.943Z,16.5
2023-04-30T13:24:27.796Z,16.5
2023-04-30T13:25:27.762Z,16.5
2023-04-30T13:26:27.772Z,16.5
2023-04-30T13:27:27.738Z,16.6
2023-04-30T13:28:27.808Z,16.6
2023-04-30T13:29:27.790Z,16.6
2023-04-30T13:30:27.806Z,16.6
2023-04-30T13:31:27.941Z,16.7
2023-04-30T13:32:27.835Z,16.7
2023-04-30T13:33:27.786Z,16.7
2023-04-30T13:34:27.774Z,16.7
2023-04-30T13:35:27.752Z,16.7
2023-04-30T13:36:27.955Z,16.7
2023-04-30T13:37:27.741Z,16.8
2023-04-30T13:38:27.738Z,16.8
2023-04-30T13:39:27.705Z,16.8
2023-04-30T13:40:27.805Z,16.8
2023-04-30T13:41:27.736Z,16.8
2023-04-30T13:42:28.015Z,16.8
2023-04-30T13:43:27.728Z,16.8
2023-04-30T13:44:27.724Z,16.8
2023-04-30T13:45:27.854Z,16.7
2023-04-30T13:46:49.519Z,16.7